createdAt,value
2022-09-15T00:06:42.565Z,18.81
2022-09-15T00:21:48.098Z,18.81
2022-09-15T00:36:53.620Z,18.81
2022-09-15T00:52:03.684Z,18.75
2022-09-15T01:07:12.433Z,18.69
2022-09-15T01:22:33.949Z,18.63
2022-09-15T01:37:43.898Z,18.69
2022-09-15T01:52:53.386Z,18.75
2022-09-15T02:08:05.657Z,18.69
2022-09-15T02:23:16.440Z,18.50
2022-09-15T02:38:22.341Z,18.31
2022-09-15T02:53:27.839Z,18.44
2022-09-15T03:08:33.279Z,18.50
2022-09-15T03:23:39.097Z,18.56
2022-09-15T03:38:44.681Z,18.50
2022-09-15T03:53:50.252Z,18.13
2022-09-15T04:08:58.282Z,18.13
2022-09-15T04:24:06.200Z,18.31
2022-09-15T04:39:11.782Z,18.25
2022-09-15T04:54:17.359Z,18.31
2022-09-15T05:09:23.349Z,18.25
2022-09-15T05:24:28.910Z,18.31
2022-09-15T05:39:34.566Z,18.31
2022-09-15T05:54:40.099Z,18.38
2022-09-15T06:09:45.674Z,18.38
2022-09-15T06:24:52.629Z,18.38
2022-09-15T06:39:58.303Z,18.44
2022-09-15T06:55:04.097Z,18.50
2022-09-15T07:10:10.915Z,18.56
2022-09-15T07:25:16.811Z,18.38
2022-09-15T07:40:22.571Z,18.50
2022-09-15T07:55:28.577Z,18.63
2022-09-15T08:10:34.628Z,19.00
2022-09-15T08:25:40.747Z,19.31
2022-09-15T08:40:48.190Z,19.44
2022-09-15T08:55:56.258Z,19.88
2022-09-15T09:11:10.695Z,19.88
2022-09-15T09:26:17.036Z,19.88
2022-09-15T09:41:26.302Z,19.75
2022-09-15T09:56:31.862Z,19.88
2022-09-15T10:11:46.171Z,19.94
2022-09-15T10:26:51.978Z,19.75
2022-09-15T10:42:06.045Z,19.88
2022-09-15T10:57:20.785Z,20.25
2022-09-15T11:12:39.060Z,21.00
2022-09-15T11:27:47.665Z,20.81
2022-09-15T11:42:55.472Z,20.94
2022-09-15T11:58:21.036Z,20.69
2022-09-15T12:13:28.620Z,20.81
2022-09-15T12:28:54.537Z,20.94
2022-09-15T12:44:08.848Z,20.50
2022-09-15T12:59:16.172Z,21.19
2022-09-15T13:14:29.353Z,21.19
2022-09-15T13:29:45.234Z,21.19
2022-09-15T13:45:13.925Z,21.13
2022-09-15T14:00:23.155Z,20.75
2022-09-15T14:15:30.654Z,20.75
2022-09-15T14:30:36.245Z,20.69
2022-09-15T14:45:54.469Z,20.50
2022-09-15T15:01:09.194Z,19.94
2022-09-15T15:16:22.679Z,19.75
2022-09-15T15:31:30.378Z,19.38
2022-09-15T15:46:53.958Z,19.31
2022-09-15T16:02:00.736Z,19.25
2022-09-15T16:17:06.746Z,19.31
2022-09-15T16:32:19.832Z,19.25
2022-09-15T16:47:26.450Z,19.19
2022-09-15T17:02:32.192Z,19.19
2022-09-15T17:17:38.157Z,19.13
2022-09-15T17:32:43.887Z,18.94
2022-09-15T17:47:49.919Z,19.00
2022-09-15T18:02:57.961Z,18.94
2022-09-15T18:18:08.830Z,18.81
2022-09-15T18:33:16.673Z,18.81
2022-09-15T18:48:22.524Z,18.75
2022-09-15T19:03:28.320Z,18.63
2022-09-15T19:18:34.080Z,18.63
2022-09-15T19:33:40.277Z,18.50
2022-09-15T19:48:49.322Z,18.44
2022-09-15T20:19:21.075Z,18.31
2022-09-15T20:34:26.771Z,18.25
2022-09-15T20:49:32.188Z,18.25
2022-09-15T21:04:37.672Z,18.25
2022-09-15T21:19:43.383Z,18.19
2022-09-15T21:34:49.514Z,18.19
2022-09-15T21:49:56.146Z,18.00
2022-09-15T22:05:01.844Z,18.13
2022-09-15T22:20:09.698Z,18.06
2022-09-15T22:35:15.511Z,18.06
2022-09-15T22:50:21.051Z,18.06
2022-09-15T23:05:26.694Z,18.00
2022-09-15T23:20:32.247Z,17.94
2022-09-15T23:35:38.165Z,17.94
2022-09-15T23:50:44.477Z,17.94
